sensor_id;sensor_type;location;lat;lon;timestamp;P1;durP1;ratioP1;P2;durP2;ratioP2
14518;SDS011;7346;50.846;4.388;2022-10-28T00:01:34;10.43;;;3.90;;
14518;SDS011;7346;50.846;4.388;2022-10-28T00:04:01;11.15;;;3.72;;
14518;SDS011;7346;50.846;4.388;2022-10-28T00:06:29;9.15;;;3.72;;
14518;SDS011;7346;50.846;4.388;2022-10-28T00:08:56;9.35;;;3.83;;
14518;SDS011;7346;50.846;4.388;2022-10-28T00:11:27;10.30;;;3.88;;
14518;SDS011;7346;50.846;4.388;2022-10-28T00:13:58;9.60;;;3.60;;
14518;SDS011;7346;50.846;4.388;2022-10-28T00:16:26;10.18;;;3.72;;
14518;SDS011;7346;50.846;4.388;2022-10-28T00:18:56;13.57;;;3.83;;
14518;SDS011;7346;50.846;4.388;2022-10-28T00:21:24;13.00;;;3.55;;
14518;SDS011;7346;50.846;4.388;2022-10-28T00:23:53;8.35;;;3.35;;
14518;SDS011;7346;50.846;4.388;2022-10-28T00:26:21;12.88;;;3.67;;
14518;SDS011;7346;50.846;4.388;2022-10-28T00:28:50;14.43;;;3.63;;
14518;SDS011;7346;50.846;4.388;2022-10-28T00:31:21;6.60;;;3.38;;
14518;SDS011;7346;50.846;4.388;2022-10-28T00:33:49;9.73;;;4.25;;
14518;SDS011;7346;50.846;4.388;2022-10-28T00:36:17;14.80;;;3.42;;
14518;SDS011;7346;50.846;4.388;2022-10-28T00:38:45;12.95;;;3.47;;
14518;SDS011;7346;50.846;4.388;2022-10-28T00:41:14;14.45;;;3.90;;
14518;SDS011;7346;50.846;4.388;2022-10-28T00:43:45;9.38;;;3.63;;
14518;SDS011;7346;50.846;4.388;2022-10-28T00:46:15;10.65;;;4.07;;
14518;SDS011;7346;50.846;4.388;2022-10-28T00:48:51;10.50;;;3.92;;
14518;SDS011;7346;50.846;4.388;2022-10-28T00:51:21;9.40;;;3.47;;
14518;SDS011;7346;50.846;4.388;2022-10-28T00:53:50;12.82;;;3.67;;
14518;SDS011;7346;50.846;4.388;2022-10-28T00:56:18;9.27;;;3.22;;
14518;SDS011;7346;50.846;4.388;2022-10-28T00:58:46;12.85;;;3.78;;
14518;SDS011;7346;50.846;4.388;2022-10-28T01:01:15;13.00;;;3.60;;
14518;SDS011;7346;50.846;4.388;2022-10-28T01:03:44;12.07;;;3.25;;
14518;SDS011;7346;50.846;4.388;2022-10-28T01:06:11;12.48;;;3.00;;
14518;SDS011;7346;50.846;4.388;2022-10-28T01:08:39;16.10;;;3.78;;
14518;SDS011;7346;50.846;4.388;2022-10-28T01:11:19;10.40;;;3.53;;
14518;SDS011;7346;50.846;4.388;2022-10-28T01:13:59;12.35;;;3.38;;
14518;SDS011;7346;50.846;4.388;2022-10-28T01:16:38;14.40;;;3.67;;
14518;SDS011;7346;50.846;4.388;2022-10-28T01:19:27;14.20;;;4.05;;
14518;SDS011;7346;50.846;4.388;2022-10-28T01:22:10;8.63;;;2.97;;
14518;SDS011;7346;50.846;4.388;2022-10-28T01:27:45;14.40;;;3.72;;
14518;SDS011;7346;50.846;4.388;2022-10-28T01:30:26;17.88;;;3.50;;
14518;SDS011;7346;50.846;4.388;2022-10-28T01:33:00;9.38;;;3.15;;
14518;SDS011;7346;50.846;4.388;2022-10-28T01:35:35;9.95;;;2.90;;
14518;SDS011;7346;50.846;4.388;2022-10-28T01:38:14;12.45;;;3.47;;
14518;SDS011;7346;50.846;4.388;2022-10-28T01:40:51;10.27;;;3.22;;
14518;SDS011;7346;50.846;4.388;2022-10-28T01:43:22;11.60;;;3.10;;
14518;SDS011;7346;50.846;4.388;2022-10-28T01:45:55;9.85;;;3.47;;
14518;SDS011;7346;50.846;4.388;2022-10-28T01:48:29;13.90;;;3.60;;
14518;SDS011;7346;50.846;4.388;2022-10-28T01:51:02;11.73;;;3.53;;
14518;SDS011;7346;50.846;4.388;2022-10-28T01:53:34;11.82;;;3.53;;
14518;SDS011;7346;50.846;4.388;2022-10-28T01:56:06;12.50;;;3.22;;
14518;SDS011;7346;50.846;4.388;2022-10-28T01:58:36;15.43;;;3.42;;
14518;SDS011;7346;50.846;4.388;2022-10-28T02:01:05;16.17;;;3.67;;
14518;SDS011;7346;50.846;4.388;2022-10-28T02:03:39;13.52;;;3.78;;
14518;SDS011;7346;50.846;4.388;2022-10-28T02:06:11;11.43;;;3.47;;
14518;SDS011;7346;50.846;4.388;2022-10-28T02:08:52;11.20;;;3.05;;
14518;SDS011;7346;50.846;4.388;2022-10-28T02:11:34;14.82;;;3.47;;
14518;SDS011;7346;50.846;4.388;2022-10-28T02:14:12;11.45;;;3.22;;
14518;SDS011;7346;50.846;4.388;2022-10-28T02:16:50;12.23;;;3.58;;
14518;SDS011;7346;50.846;4.388;2022-10-28T02:19:27;10.00;;;3.47;;
14518;SDS011;7346;50.846;4.388;2022-10-28T02:22:03;13.35;;;3.60;;
14518;SDS011;7346;50.846;4.388;2022-10-28T02:24:39;13.93;;;3.60;;
14518;SDS011;7346;50.846;4.388;2022-10-28T02:27:15;12.07;;;3.50;;
14518;SDS011;7346;50.846;4.388;2022-10-28T02:29:53;11.07;;;3.60;;
14518;SDS011;7346;50.846;4.388;2022-10-28T02:32:26;12.10;;;3.53;;
14518;SDS011;7346;50.846;4.388;2022-10-28T02:34:58;13.75;;;3.63;;
14518;SDS011;7346;50.846;4.388;2022-10-28T02:37:27;7.93;;;3.42;;
14518;SDS011;7346;50.846;4.388;2022-10-28T02:39:58;12.57;;;3.38;;
14518;SDS011;7346;50.846;4.388;2022-10-28T02:42:29;15.52;;;3.65;;
14518;SDS011;7346;50.846;4.388;2022-10-28T02:45:02;10.00;;;3.33;;
14518;SDS011;7346;50.846;4.388;2022-10-28T02:47:34;12.00;;;3.30;;
14518;SDS011;7346;50.846;4.388;2022-10-28T02:50:08;13.55;;;3.85;;
14518;SDS011;7346;50.846;4.388;2022-10-28T02:52:38;15.05;;;3.63;;
14518;SDS011;7346;50.846;4.388;2022-10-28T02:55:07;14.10;;;3.90;;
14518;SDS011;7346;50.846;4.388;2022-10-28T02:57:35;13.27;;;3.95;;
14518;SDS011;7346;50.846;4.388;2022-10-28T03:00:06;12.15;;;3.92;;
14518;SDS011;7346;50.846;4.388;2022-10-28T03:02:36;11.73;;;3.30;;
14518;SDS011;7346;50.846;4.388;2022-10-28T03:05:03;9.45;;;3.72;;
14518;SDS011;7346;50.846;4.388;2022-10-28T03:07:32;15.85;;;3.58;;
14518;SDS011;7346;50.846;4.388;2022-10-28T03:09:59;10.57;;;3.00;;
14518;SDS011;7346;50.846;4.388;2022-10-28T03:12:26;14.20;;;3.72;;
14518;SDS011;7346;50.846;4.388;2022-10-28T03:14:53;10.60;;;3.35;;
14518;SDS011;7346;50.846;4.388;2022-10-28T03:17:20;14.60;;;3.80;;
14518;SDS011;7346;50.846;4.388;2022-10-28T03:19:47;14.02;;;3.65;;
14518;SDS011;7346;50.846;4.388;2022-10-28T03:22:14;8.80;;;3.55;;
14518;SDS011;7346;50.846;4.388;2022-10-28T03:24:42;14.52;;;3.47;;
14518;SDS011;7346;50.846;4.388;2022-10-28T03:27:09;10.93;;;3.50;;
14518;SDS011;7346;50.846;4.388;2022-10-28T03:29:36;12.73;;;4.47;;
14518;SDS011;7346;50.846;4.388;2022-10-28T03:32:03;16.75;;;3.97;;
14518;SDS011;7346;50.846;4.388;2022-10-28T03:34:30;10.75;;;3.55;;
14518;SDS011;7346;50.846;4.388;2022-10-28T03:36:57;10.50;;;3.15;;
14518;SDS011;7346;50.846;4.388;2022-10-28T03:39:24;12.70;;;3.13;;
14518;SDS011;7346;50.846;4.388;2022-10-28T03:41:53;11.23;;;3.97;;
14518;SDS011;7346;50.846;4.388;2022-10-28T03:44:19;10.57;;;3.47;;
14518;SDS011;7346;50.846;4.388;2022-10-28T03:46:47;10.50;;;3.70;;
14518;SDS011;7346;50.846;4.388;2022-10-28T03:49:14;16.70;;;3.55;;
14518;SDS011;7346;50.846;4.388;2022-10-28T03:51:41;12.32;;;3.67;;
14518;SDS011;7346;50.846;4.388;2022-10-28T03:54:07;11.35;;;3.90;;
14518;SDS011;7346;50.846;4.388;2022-10-28T03:56:34;16.92;;;3.80;;
14518;SDS011;7346;50.846;4.388;2022-10-28T03:59:07;13.20;;;3.80;;
14518;SDS011;7346;50.846;4.388;2022-10-28T04:01:34;10.40;;;3.78;;
14518;SDS011;7346;50.846;4.388;2022-10-28T04:04:01;14.02;;;3.85;;
14518;SDS011;7346;50.846;4.388;2022-10-28T04:06:28;12.48;;;3.70;;
14518;SDS011;7346;50.846;4.388;2022-10-28T04:08:55;10.23;;;3.50;;
14518;SDS011;7346;50.846;4.388;2022-10-28T04:11:22;13.40;;;3.35;;
14518;SDS011;7346;50.846;4.388;2022-10-28T04:13:49;14.60;;;3.72;;
14518;SDS011;7346;50.846;4.388;2022-10-28T04:16:17;10.98;;;3.55;;
14518;SDS011;7346;50.846;4.388;2022-10-28T04:18:44;11.73;;;3.67;;
14518;SDS011;7346;50.846;4.388;2022-10-28T04:21:11;13.73;;;3.90;;
14518;SDS011;7346;50.846;4.388;2022-10-28T04:23:38;11.15;;;3.30;;
14518;SDS011;7346;50.846;4.388;2022-10-28T04:26:05;11.13;;;3.35;;
14518;SDS011;7346;50.846;4.388;2022-10-28T04:28:32;14.05;;;3.47;;
14518;SDS011;7346;50.846;4.388;2022-10-28T04:30:59;14.32;;;3.95;;
14518;SDS011;7346;50.846;4.388;2022-10-28T04:33:28;13.65;;;3.70;;
14518;SDS011;7346;50.846;4.388;2022-10-28T04:35:55;16.60;;;4.32;;
14518;SDS011;7346;50.846;4.388;2022-10-28T04:38:22;17.63;;;4.13;;
14518;SDS011;7346;50.846;4.388;2022-10-28T04:40:49;9.60;;;3.80;;
14518;SDS011;7346;50.846;4.388;2022-10-28T04:43:16;13.85;;;3.90;;
14518;SDS011;7346;50.846;4.388;2022-10-28T04:45:43;14.65;;;3.80;;
14518;SDS011;7346;50.846;4.388;2022-10-28T04:48:11;8.52;;;3.47;;
14518;SDS011;7346;50.846;4.388;2022-10-28T04:50:39;16.73;;;3.65;;
14518;SDS011;7346;50.846;4.388;2022-10-28T04:53:06;16.15;;;3.80;;
14518;SDS011;7346;50.846;4.388;2022-10-28T04:55:33;12.77;;;3.85;;
14518;SDS011;7346;50.846;4.388;2022-10-28T04:58:00;14.40;;;4.20;;
14518;SDS011;7346;50.846;4.388;2022-10-28T05:00:28;14.82;;;3.88;;
14518;SDS011;7346;50.846;4.388;2022-10-28T05:02:55;15.38;;;3.67;;
14518;SDS011;7346;50.846;4.388;2022-10-28T05:05:25;9.32;;;3.67;;
14518;SDS011;7346;50.846;4.388;2022-10-28T05:07:54;12.98;;;4.00;;
14518;SDS011;7346;50.846;4.388;2022-10-28T05:10:20;11.55;;;3.35;;
14518;SDS011;7346;50.846;4.388;2022-10-28T05:12:47;11.75;;;3.72;;
14518;SDS011;7346;50.846;4.388;2022-10-28T05:15:14;19.60;;;3.83;;
14518;SDS011;7346;50.846;4.388;2022-10-28T05:17:42;15.32;;;4.40;;
14518;SDS011;7346;50.846;4.388;2022-10-28T05:20:10;10.63;;;3.85;;
14518;SDS011;7346;50.846;4.388;2022-10-28T05:22:39;12.20;;;3.55;;
14518;SDS011;7346;50.846;4.388;2022-10-28T05:25:12;11.90;;;3.92;;
14518;SDS011;7346;50.846;4.388;2022-10-28T05:27:39;15.80;;;3.90;;
14518;SDS011;7346;50.846;4.388;2022-10-28T05:30:06;11.05;;;3.97;;
14518;SDS011;7346;50.846;4.388;2022-10-28T05:32:34;12.07;;;3.72;;
14518;SDS011;7346;50.846;4.388;2022-10-28T05:35:01;18.02;;;4.07;;
14518;SDS011;7346;50.846;4.388;2022-10-28T05:37:28;15.40;;;3.45;;
14518;SDS011;7346;50.846;4.388;2022-10-28T05:39:55;10.50;;;3.90;;
14518;SDS011;7346;50.846;4.388;2022-10-28T05:42:24;17.13;;;4.07;;
14518;SDS011;7346;50.846;4.388;2022-10-28T05:44:50;14.38;;;4.07;;
14518;SDS011;7346;50.846;4.388;2022-10-28T05:47:17;12.68;;;4.63;;
14518;SDS011;7346;50.846;4.388;2022-10-28T05:49:44;13.90;;;4.13;;
14518;SDS011;7346;50.846;4.388;2022-10-28T05:52:11;14.32;;;3.83;;
14518;SDS011;7346;50.846;4.388;2022-10-28T05:54:38;11.23;;;3.50;;
14518;SDS011;7346;50.846;4.388;2022-10-28T05:57:05;12.13;;;3.92;;
14518;SDS011;7346;50.846;4.388;2022-10-28T05:59:33;11.25;;;3.75;;
14518;SDS011;7346;50.846;4.388;2022-10-28T06:02:00;11.00;;;3.92;;
14518;SDS011;7346;50.846;4.388;2022-10-28T06:04:27;19.00;;;3.90;;
14518;SDS011;7346;50.846;4.388;2022-10-28T06:06:55;17.20;;;4.13;;
14518;SDS011;7346;50.846;4.388;2022-10-28T06:09:22;12.63;;;4.05;;
14518;SDS011;7346;50.846;4.388;2022-10-28T06:11:49;15.10;;;4.13;;
14518;SDS011;7346;50.846;4.388;2022-10-28T06:14:15;19.35;;;4.20;;
14518;SDS011;7346;50.846;4.388;2022-10-28T06:16:44;14.55;;;4.05;;
14518;SDS011;7346;50.846;4.388;2022-10-28T06:19:11;16.90;;;4.57;;
14518;SDS011;7346;50.846;4.388;2022-10-28T06:21:38;15.82;;;4.18;;
14518;SDS011;7346;50.846;4.388;2022-10-28T06:24:06;11.73;;;4.50;;
14518;SDS011;7346;50.846;4.388;2022-10-28T06:26:33;9.27;;;3.60;;
14518;SDS011;7346;50.846;4.388;2022-10-28T06:29:00;16.42;;;4.10;;
14518;SDS011;7346;50.846;4.388;2022-10-28T06:31:27;13.50;;;4.78;;
14518;SDS011;7346;50.846;4.388;2022-10-28T06:33:56;13.10;;;4.15;;
14518;SDS011;7346;50.846;4.388;2022-10-28T06:36:23;21.05;;;6.05;;
14518;SDS011;7346;50.846;4.388;2022-10-28T06:38:51;14.65;;;4.45;;
14518;SDS011;7346;50.846;4.388;2022-10-28T06:41:18;16.58;;;4.53;;
14518;SDS011;7346;50.846;4.388;2022-10-28T06:43:45;16.25;;;4.15;;
14518;SDS011;7346;50.846;4.388;2022-10-28T06:46:12;14.98;;;4.38;;
14518;SDS011;7346;50.846;4.388;2022-10-28T06:48:39;18.20;;;5.38;;
14518;SDS011;7346;50.846;4.388;2022-10-28T06:51:08;21.45;;;10.13;;
14518;SDS011;7346;50.846;4.388;2022-10-28T06:53:35;23.33;;;8.93;;
14518;SDS011;7346;50.846;4.388;2022-10-28T06:56:03;18.23;;;9.65;;
14518;SDS011;7346;50.846;4.388;2022-10-28T06:58:30;20.00;;;11.43;;
14518;SDS011;7346;50.846;4.388;2022-10-28T07:01:01;17.35;;;9.02;;
14518;SDS011;7346;50.846;4.388;2022-10-28T07:03:29;21.48;;;11.05;;
14518;SDS011;7346;50.846;4.388;2022-10-28T07:05:59;22.80;;;11.18;;
14518;SDS011;7346;50.846;4.388;2022-10-28T07:08:51;26.30;;;14.05;;
14518;SDS011;7346;50.846;4.388;2022-10-28T07:11:21;25.75;;;14.75;;
14518;SDS011;7346;50.846;4.388;2022-10-28T07:13:55;23.42;;;13.18;;
14518;SDS011;7346;50.846;4.388;2022-10-28T07:16:24;18.70;;;6.38;;
14518;SDS011;7346;50.846;4.388;2022-10-28T07:18:51;14.32;;;6.22;;
14518;SDS011;7346;50.846;4.388;2022-10-28T07:21:26;14.43;;;5.53;;
14518;SDS011;7346;50.846;4.388;2022-10-28T07:23:57;13.80;;;5.18;;
14518;SDS011;7346;50.846;4.388;2022-10-28T07:26:31;11.60;;;4.85;;
14518;SDS011;7346;50.846;4.388;2022-10-28T07:29:12;14.57;;;5.03;;
14518;SDS011;7346;50.846;4.388;2022-10-28T07:34:37;14.80;;;4.38;;
14518;SDS011;7346;50.846;4.388;2022-10-28T07:37:07;17.80;;;4.80;;
14518;SDS011;7346;50.846;4.388;2022-10-28T07:39:39;23.85;;;4.85;;
14518;SDS011;7346;50.846;4.388;2022-10-28T07:42:08;13.00;;;4.10;;
14518;SDS011;7346;50.846;4.388;2022-10-28T07:44:45;16.95;;;4.82;;
14518;SDS011;7346;50.846;4.388;2022-10-28T07:47:12;16.80;;;4.95;;
14518;SDS011;7346;50.846;4.388;2022-10-28T07:49:39;11.63;;;4.22;;
14518;SDS011;7346;50.846;4.388;2022-10-28T07:52:06;19.88;;;5.40;;
14518;SDS011;7346;50.846;4.388;2022-10-28T07:54:34;15.82;;;5.03;;
14518;SDS011;7346;50.846;4.388;2022-10-28T07:57:04;15.07;;;6.00;;
14518;SDS011;7346;50.846;4.388;2022-10-28T07:59:31;22.88;;;7.22;;
14518;SDS011;7346;50.846;4.388;2022-10-28T08:01:58;14.85;;;4.80;;
14518;SDS011;7346;50.846;4.388;2022-10-28T08:04:27;13.20;;;4.85;;
14518;SDS011;7346;50.846;4.388;2022-10-28T08:06:54;11.27;;;4.45;;
14518;SDS011;7346;50.846;4.388;2022-10-28T08:09:21;15.57;;;4.82;;
14518;SDS011;7346;50.846;4.388;2022-10-28T08:11:48;35.13;;;5.10;;
14518;SDS011;7346;50.846;4.388;2022-10-28T08:14:17;14.48;;;4.75;;
14518;SDS011;7346;50.846;4.388;2022-10-28T08:16:44;17.88;;;5.30;;
14518;SDS011;7346;50.846;4.388;2022-10-28T08:19:11;13.13;;;4.57;;
14518;SDS011;7346;50.846;4.388;2022-10-28T08:21:38;16.85;;;4.82;;
14518;SDS011;7346;50.846;4.388;2022-10-28T08:24:05;18.05;;;4.97;;
14518;SDS011;7346;50.846;4.388;2022-10-28T08:26:32;15.40;;;4.72;;
14518;SDS011;7346;50.846;4.388;2022-10-28T08:28:59;14.40;;;4.22;;
14518;SDS011;7346;50.846;4.388;2022-10-28T08:31:28;21.90;;;5.20;;
14518;SDS011;7346;50.846;4.388;2022-10-28T08:33:56;15.43;;;4.90;;
14518;SDS011;7346;50.846;4.388;2022-10-28T08:36:23;14.00;;;4.13;;
14518;SDS011;7346;50.846;4.388;2022-10-28T08:38:50;21.52;;;4.53;;
14518;SDS011;7346;50.846;4.388;2022-10-28T08:41:31;16.85;;;5.15;;
14518;SDS011;7346;50.846;4.388;2022-10-28T08:47:00;21.20;;;5.65;;
14518;SDS011;7346;50.846;4.388;2022-10-28T08:49:39;13.27;;;4.10;;
14518;SDS011;7346;50.846;4.388;2022-10-28T08:52:10;14.35;;;4.32;;
14518;SDS011;7346;50.846;4.388;2022-10-28T08:54:48;20.00;;;4.95;;
14518;SDS011;7346;50.846;4.388;2022-10-28T08:57:19;13.82;;;4.82;;
14518;SDS011;7346;50.846;4.388;2022-10-28T08:59:50;12.40;;;4.68;;
14518;SDS011;7346;50.846;4.388;2022-10-28T09:02:20;13.23;;;4.63;;
14518;SDS011;7346;50.846;4.388;2022-10-28T09:04:50;12.68;;;4.28;;
14518;SDS011;7346;50.846;4.388;2022-10-28T09:07:21;15.60;;;4.28;;
14518;SDS011;7346;50.846;4.388;2022-10-28T09:09:52;21.67;;;5.00;;
14518;SDS011;7346;50.846;4.388;2022-10-28T09:12:25;14.10;;;4.22;;
14518;SDS011;7346;50.846;4.388;2022-10-28T09:15:10;21.15;;;4.72;;
14518;SDS011;7346;50.846;4.388;2022-10-28T09:17:50;20.38;;;4.70;;
14518;SDS011;7346;50.846;4.388;2022-10-28T09:20:19;19.13;;;4.70;;
14518;SDS011;7346;50.846;4.388;2022-10-28T09:22:53;15.75;;;4.22;;
14518;SDS011;7346;50.846;4.388;2022-10-28T09:25:22;16.45;;;4.93;;
14518;SDS011;7346;50.846;4.388;2022-10-28T09:27:59;16.00;;;4.65;;
14518;SDS011;7346;50.846;4.388;2022-10-28T09:30:44;17.55;;;4.15;;
14518;SDS011;7346;50.846;4.388;2022-10-28T09:36:26;16.20;;;3.88;;
14518;SDS011;7346;50.846;4.388;2022-10-28T09:38:57;20.05;;;4.45;;
14518;SDS011;7346;50.846;4.388;2022-10-28T09:41:26;16.25;;;4.28;;
14518;SDS011;7346;50.846;4.388;2022-10-28T09:43:58;13.82;;;3.95;;
14518;SDS011;7346;50.846;4.388;2022-10-28T09:46:31;13.40;;;3.75;;
14518;SDS011;7346;50.846;4.388;2022-10-28T09:49:03;15.65;;;4.75;;
14518;SDS011;7346;50.846;4.388;2022-10-28T09:51:38;16.50;;;4.28;;
14518;SDS011;7346;50.846;4.388;2022-10-28T09:54:11;13.80;;;4.18;;
14518;SDS011;7346;50.846;4.388;2022-10-28T09:56:38;14.55;;;4.00;;
14518;SDS011;7346;50.846;4.388;2022-10-28T09:59:09;12.07;;;4.25;;
14518;SDS011;7346;50.846;4.388;2022-10-28T10:01:38;12.45;;;4.03;;
14518;SDS011;7346;50.846;4.388;2022-10-28T10:04:16;15.15;;;4.18;;
14518;SDS011;7346;50.846;4.388;2022-10-28T10:06:44;11.18;;;4.03;;
14518;SDS011;7346;50.846;4.388;2022-10-28T10:09:16;16.02;;;4.55;;
14518;SDS011;7346;50.846;4.388;2022-10-28T10:11:46;12.07;;;3.90;;
14518;SDS011;7346;50.846;4.388;2022-10-28T10:14:15;12.00;;;3.90;;
14518;SDS011;7346;50.846;4.388;2022-10-28T10:16:46;18.92;;;3.97;;
14518;SDS011;7346;50.846;4.388;2022-10-28T10:19:19;13.18;;;4.18;;
14518;SDS011;7346;50.846;4.388;2022-10-28T10:21:46;12.73;;;4.07;;
14518;SDS011;7346;50.846;4.388;2022-10-28T10:24:21;15.85;;;4.15;;
14518;SDS011;7346;50.846;4.388;2022-10-28T10:26:49;13.18;;;4.00;;
14518;SDS011;7346;50.846;4.388;2022-10-28T10:29:16;17.90;;;4.05;;
14518;SDS011;7346;50.846;4.388;2022-10-28T10:31:44;16.08;;;3.88;;
14518;SDS011;7346;50.846;4.388;2022-10-28T10:34:19;16.90;;;4.30;;
14518;SDS011;7346;50.846;4.388;2022-10-28T10:36:50;12.23;;;3.42;;
14518;SDS011;7346;50.846;4.388;2022-10-28T10:39:22;15.27;;;3.83;;
14518;SDS011;7346;50.846;4.388;2022-10-28T10:41:52;13.23;;;3.67;;
14518;SDS011;7346;50.846;4.388;2022-10-28T10:44:28;11.73;;;3.55;;
14518;SDS011;7346;50.846;4.388;2022-10-28T10:47:15;14.32;;;3.80;;
14518;SDS011;7346;50.846;4.388;2022-10-28T10:49:46;19.35;;;4.50;;
14518;SDS011;7346;50.846;4.388;2022-10-28T10:52:17;15.68;;;4.13;;
14518;SDS011;7346;50.846;4.388;2022-10-28T10:57:46;16.02;;;3.80;;
14518;SDS011;7346;50.846;4.388;2022-10-28T11:00:14;14.23;;;3.95;;
14518;SDS011;7346;50.846;4.388;2022-10-28T11:02:45;15.50;;;4.07;;
14518;SDS011;7346;50.846;4.388;2022-10-28T11:05:18;16.55;;;4.05;;
14518;SDS011;7346;50.846;4.388;2022-10-28T11:07:47;14.95;;;4.40;;
14518;SDS011;7346;50.846;4.388;2022-10-28T11:10:19;14.23;;;4.13;;
14518;SDS011;7346;50.846;4.388;2022-10-28T11:12:52;18.73;;;4.65;;
14518;SDS011;7346;50.846;4.388;2022-10-28T11:15:22;15.82;;;3.85;;
14518;SDS011;7346;50.846;4.388;2022-10-28T11:17:55;16.17;;;3.97;;
14518;SDS011;7346;50.846;4.388;2022-10-28T11:20:25;18.77;;;4.20;;
14518;SDS011;7346;50.846;4.388;2022-10-28T11:23:01;13.20;;;3.45;;
14518;SDS011;7346;50.846;4.388;2022-10-28T11:25:41;18.30;;;4.20;;
14518;SDS011;7346;50.846;4.388;2022-10-28T11:28:19;21.73;;;4.32;;
14518;SDS011;7346;50.846;4.388;2022-10-28T11:31:05;17.73;;;4.05;;
14518;SDS011;7346;50.846;4.388;2022-10-28T11:33:50;13.70;;;3.85;;
14518;SDS011;7346;50.846;4.388;2022-10-28T11:36:32;11.63;;;3.58;;
14518;SDS011;7346;50.846;4.388;2022-10-28T11:39:10;14.05;;;3.92;;
14518;SDS011;7346;50.846;4.388;2022-10-28T11:41:51;14.85;;;3.85;;
14518;SDS011;7346;50.846;4.388;2022-10-28T11:44:32;16.98;;;4.03;;
14518;SDS011;7346;50.846;4.388;2022-10-28T11:47:08;13.75;;;4.18;;
14518;SDS011;7346;50.846;4.388;2022-10-28T11:50:04;13.45;;;3.75;;
14518;SDS011;7346;50.846;4.388;2022-10-28T11:52:47;10.35;;;4.00;;
14518;SDS011;7346;50.846;4.388;2022-10-28T11:55:26;13.57;;;3.58;;
14518;SDS011;7346;50.846;4.388;2022-10-28T11:58:02;14.55;;;3.85;;
14518;SDS011;7346;50.846;4.388;2022-10-28T12:00:42;17.52;;;4.00;;
14518;SDS011;7346;50.846;4.388;2022-10-28T12:03:26;17.33;;;3.83;;
14518;SDS011;7346;50.846;4.388;2022-10-28T12:06:17;17.13;;;3.78;;
14518;SDS011;7346;50.846;4.388;2022-10-28T12:08:58;10.57;;;3.67;;
14518;SDS011;7346;50.846;4.388;2022-10-28T12:11:38;16.27;;;4.40;;
14518;SDS011;7346;50.846;4.388;2022-10-28T12:14:19;14.13;;;3.70;;
14518;SDS011;7346;50.846;4.388;2022-10-28T12:16:53;15.13;;;3.63;;
14518;SDS011;7346;50.846;4.388;2022-10-28T12:19:28;13.80;;;3.47;;
14518;SDS011;7346;50.846;4.388;2022-10-28T12:22:00;10.50;;;3.70;;
14518;SDS011;7346;50.846;4.388;2022-10-28T12:24:33;11.40;;;3.75;;
14518;SDS011;7346;50.846;4.388;2022-10-28T12:27:02;11.18;;;4.05;;
14518;SDS011;7346;50.846;4.388;2022-10-28T12:29:35;18.38;;;3.92;;
14518;SDS011;7346;50.846;4.388;2022-10-28T12:32:06;16.15;;;3.95;;
14518;SDS011;7346;50.846;4.388;2022-10-28T12:34:37;14.45;;;4.00;;
14518;SDS011;7346;50.846;4.388;2022-10-28T12:37:10;13.50;;;4.20;;
14518;SDS011;7346;50.846;4.388;2022-10-28T12:39:44;13.60;;;3.63;;
14518;SDS011;7346;50.846;4.388;2022-10-28T12:42:17;21.98;;;4.60;;
14518;SDS011;7346;50.846;4.388;2022-10-28T12:44:49;11.30;;;3.88;;
14518;SDS011;7346;50.846;4.388;2022-10-28T12:47:21;21.55;;;4.47;;
14518;SDS011;7346;50.846;4.388;2022-10-28T12:49:58;15.55;;;3.63;;
14518;SDS011;7346;50.846;4.388;2022-10-28T12:52:32;13.02;;;3.67;;
14518;SDS011;7346;50.846;4.388;2022-10-28T12:55:09;13.18;;;3.90;;
14518;SDS011;7346;50.846;4.388;2022-10-28T12:57:47;14.02;;;3.80;;
14518;SDS011;7346;50.846;4.388;2022-10-28T13:00:20;13.80;;;4.10;;
14518;SDS011;7346;50.846;4.388;2022-10-28T13:02:53;10.82;;;3.40;;
14518;SDS011;7346;50.846;4.388;2022-10-28T13:05:26;13.48;;;3.78;;
14518;SDS011;7346;50.846;4.388;2022-10-28T13:08:02;14.43;;;3.70;;
14518;SDS011;7346;50.846;4.388;2022-10-28T13:10:51;13.60;;;3.47;;
14518;SDS011;7346;50.846;4.388;2022-10-28T13:13:27;15.77;;;3.65;;
14518;SDS011;7346;50.846;4.388;2022-10-28T13:16:07;14.10;;;4.18;;
14518;SDS011;7346;50.846;4.388;2022-10-28T13:18:51;15.13;;;4.20;;
14518;SDS011;7346;50.846;4.388;2022-10-28T13:21:29;13.52;;;4.00;;
14518;SDS011;7346;50.846;4.388;2022-10-28T13:24:18;14.20;;;3.78;;
14518;SDS011;7346;50.846;4.388;2022-10-28T13:26:51;13.57;;;3.72;;
14518;SDS011;7346;50.846;4.388;2022-10-28T13:29:20;14.68;;;3.80;;
14518;SDS011;7346;50.846;4.388;2022-10-28T13:31:50;11.15;;;3.50;;
14518;SDS011;7346;50.846;4.388;2022-10-28T13:34:19;13.70;;;3.67;;
14518;SDS011;7346;50.846;4.388;2022-10-28T13:36:55;18.52;;;3.60;;
14518;SDS011;7346;50.846;4.388;2022-10-28T13:39:37;11.07;;;3.67;;
14518;SDS011;7346;50.846;4.388;2022-10-28T13:51:28;11.40;;;4.05;;
14518;SDS011;7346;50.846;4.388;2022-10-28T13:54:21;15.52;;;3.83;;
14518;SDS011;7346;50.846;4.388;2022-10-28T13:56:56;18.33;;;4.70;;
14518;SDS011;7346;50.846;4.388;2022-10-28T13:59:31;13.93;;;3.63;;
14518;SDS011;7346;50.846;4.388;2022-10-28T14:02:20;16.13;;;4.25;;
14518;SDS011;7346;50.846;4.388;2022-10-28T14:04:53;9.90;;;3.40;;
14518;SDS011;7346;50.846;4.388;2022-10-28T14:07:22;13.07;;;3.88;;
14518;SDS011;7346;50.846;4.388;2022-10-28T14:09:54;15.55;;;3.97;;
14518;SDS011;7346;50.846;4.388;2022-10-28T14:12:26;19.00;;;3.88;;
14518;SDS011;7346;50.846;4.388;2022-10-28T14:17:47;16.35;;;3.60;;
14518;SDS011;7346;50.846;4.388;2022-10-28T14:20:24;13.38;;;3.63;;
14518;SDS011;7346;50.846;4.388;2022-10-28T14:22:55;10.10;;;3.33;;
14518;SDS011;7346;50.846;4.388;2022-10-28T14:31:40;15.63;;;3.75;;
14518;SDS011;7346;50.846;4.388;2022-10-28T14:40:03;17.15;;;4.32;;
14518;SDS011;7346;50.846;4.388;2022-10-28T14:42:48;13.90;;;3.78;;
14518;SDS011;7346;50.846;4.388;2022-10-28T14:45:30;14.32;;;4.07;;
14518;SDS011;7346;50.846;4.388;2022-10-28T14:48:15;13.40;;;3.95;;
14518;SDS011;7346;50.846;4.388;2022-10-28T14:51:03;13.45;;;3.70;;
14518;SDS011;7346;50.846;4.388;2022-10-28T14:53:33;13.32;;;4.05;;
14518;SDS011;7346;50.846;4.388;2022-10-28T14:56:02;18.08;;;4.10;;
14518;SDS011;7346;50.846;4.388;2022-10-28T14:58:34;15.20;;;3.90;;
14518;SDS011;7346;50.846;4.388;2022-10-28T15:01:08;15.63;;;4.63;;
14518;SDS011;7346;50.846;4.388;2022-10-28T15:03:48;15.73;;;3.65;;
14518;SDS011;7346;50.846;4.388;2022-10-28T15:06:19;15.60;;;4.00;;
14518;SDS011;7346;50.846;4.388;2022-10-28T15:08:49;13.65;;;4.10;;
14518;SDS011;7346;50.846;4.388;2022-10-28T15:11:17;16.08;;;4.30;;
14518;SDS011;7346;50.846;4.388;2022-10-28T15:13:46;11.10;;;3.55;;
14518;SDS011;7346;50.846;4.388;2022-10-28T15:16:17;14.82;;;4.30;;
14518;SDS011;7346;50.846;4.388;2022-10-28T15:18:45;16.55;;;4.72;;
14518;SDS011;7346;50.846;4.388;2022-10-28T15:21:15;14.15;;;4.20;;
14518;SDS011;7346;50.846;4.388;2022-10-28T15:23:56;12.43;;;4.35;;
14518;SDS011;7346;50.846;4.388;2022-10-28T15:26:24;18.33;;;3.97;;
14518;SDS011;7346;50.846;4.388;2022-10-28T15:28:51;16.10;;;4.00;;
14518;SDS011;7346;50.846;4.388;2022-10-28T15:31:20;11.70;;;3.97;;
14518;SDS011;7346;50.846;4.388;2022-10-28T15:33:48;17.98;;;4.38;;
14518;SDS011;7346;50.846;4.388;2022-10-28T15:36:16;12.73;;;4.68;;
14518;SDS011;7346;50.846;4.388;2022-10-28T15:38:46;13.80;;;4.70;;
14518;SDS011;7346;50.846;4.388;2022-10-28T15:44:22;14.95;;;3.78;;
14518;SDS011;7346;50.846;4.388;2022-10-28T15:46:52;10.98;;;3.72;;
14518;SDS011;7346;50.846;4.388;2022-10-28T15:49:32;10.52;;;3.75;;
14518;SDS011;7346;50.846;4.388;2022-10-28T15:52:20;12.88;;;3.92;;
14518;SDS011;7346;50.846;4.388;2022-10-28T15:55:22;15.07;;;4.20;;
14518;SDS011;7346;50.846;4.388;2022-10-28T15:57:52;21.17;;;6.82;;